Time;durP1;ratioP1;P1;durP2;ratioP2;P2;SDS_P1;SDS_P2;PMS_P1;PMS_P2;Temp;Humidity;BMP_temperature;BMP_pressure;BME280_temperature;BME280_humidity;BME280_pressure;Samples;Min_cycle;Max_cycle;Signal;HPM_P1;HPM_P2
2024/04/02 00:00:03;;;;;;;2.55;0.80;;;;;;;;;;5048355;22;20057;-73
2024/04/02 00:02:34;;;;;;;2.80;1.00;;;;;;;;;;5035162;28;20493;-62
2024/04/02 00:04:59;;;;;;;1.35;1.17;;;;;;;;;;5017391;28;20045;-73
2024/04/02 00:07:26;;;;;;;1.05;0.90;;;;;;;;;;5035017;28;20037;-73
2024/04/02 00:09:52;;;;;;;2.88;0.80;;;;;;;;;;5017620;28;20034;-71
2024/04/02 00:12:17;;;;;;;1.67;1.00;;;;;;;;;;5034960;28;20541;-72
2024/04/02 00:14:42;;;;;;;1.60;1.08;;;;;;;;;;5035172;28;20393;-71
2024/04/02 00:17:08;;;;;;;1.95;0.93;;;;;;;;;;5035093;28;20108;-71
2024/04/02 00:19:33;;;;;;;1.30;1.20;;;;;;;;;;5035284;28;20090;-71
2024/04/02 00:21:58;;;;;;;1.67;0.85;;;;;;;;;;5035305;28;20029;-72
2024/04/02 00:24:24;;;;;;;1.88;0.90;;;;;;;;;;5017367;28;20057;-72
2024/04/02 00:26:49;;;;;;;1.98;0.82;;;;;;;;;;5034892;28;20496;-72
2024/04/02 00:29:15;;;;;;;0.85;0.85;;;;;;;;;;5049926;28;20036;-73
2024/04/02 00:31:40;;;;;;;1.30;0.90;;;;;;;;;;5034844;28;20040;-72
2024/04/02 00:34:06;;;;;;;1.08;0.95;;;;;;;;;;5017431;28;20112;-72
2024/04/02 00:36:31;;;;;;;1.00;0.93;;;;;;;;;;5034762;28;20484;-73
2024/04/02 00:38:56;;;;;;;1.13;0.77;;;;;;;;;;5034630;28;20113;-73
2024/04/02 00:41:22;;;;;;;2.67;0.90;;;;;;;;;;5034325;28;20473;-72
2024/04/02 00:43:47;;;;;;;1.13;0.98;;;;;;;;;;5034357;28;20462;-72
2024/04/02 00:46:12;;;;;;;4.93;1.42;;;;;;;;;;5034579;28;20030;-72
2024/04/02 00:48:38;;;;;;;0.85;0.85;;;;;;;;;;5034250;28;20025;-72
2024/04/02 00:51:04;;;;;;;1.08;0.90;;;;;;;;;;5016949;28;20041;-72
2024/04/02 00:53:29;;;;;;;1.25;0.98;;;;;;;;;;5016454;28;20124;-73
2024/04/02 00:55:55;;;;;;;1.30;0.80;;;;;;;;;;5034431;28;20069;-73
2024/04/02 00:58:21;;;;;;;1.00;0.80;;;;;;;;;;5016774;28;20104;-73
2024/04/02 01:00:46;;;;;;;0.95;0.70;;;;;;;;;;5034140;28;20553;-72
2024/04/02 01:03:12;;;;;;;0.73;0.73;;;;;;;;;;5016724;28;20148;-72
2024/04/02 01:05:38;;;;;;;1.60;0.98;;;;;;;;;;5016306;28;20029;-72
2024/04/02 01:08:04;;;;;;;0.57;0.57;;;;;;;;;;5033949;28;20021;-72
2024/04/02 01:10:30;;;;;;;0.50;0.50;;;;;;;;;;5034123;28;20033;-73
2024/04/02 01:12:56;;;;;;;3.08;0.70;;;;;;;;;;5034134;28;20067;-73
2024/04/02 01:15:22;;;;;;;0.82;0.80;;;;;;;;;;5033809;28;20046;-73
2024/04/02 01:17:48;;;;;;;1.77;0.80;;;;;;;;;;5016057;28;20033;-73
2024/04/02 01:20:13;;;;;;;2.72;0.77;;;;;;;;;;5016307;28;20038;-72
2024/04/02 01:22:39;;;;;;;1.00;1.00;;;;;;;;;;5032113;28;20060;-72
2024/04/02 01:25:06;;;;;;;0.80;0.80;;;;;;;;;;5016004;28;20116;-72
2024/04/02 01:27:31;;;;;;;1.83;0.80;;;;;;;;;;5070650;22;20061;-72
2024/04/02 01:29:56;;;;;;;0.70;0.70;;;;;;;;;;5033994;28;20043;-62
2024/04/02 01:32:22;;;;;;;1.00;0.80;;;;;;;;;;5033614;28;20036;-62
2024/04/02 01:34:58;;;;;;;0.75;0.75;;;;;;;;;;5033910;28;20124;-62
2024/04/02 01:37:24;;;;;;;1.08;0.70;;;;;;;;;;5024699;23;20097;-72
2024/04/02 01:39:49;;;;;;;2.45;0.82;;;;;;;;;;5049298;22;20101;-73
2024/04/02 01:42:15;;;;;;;1.45;0.68;;;;;;;;;;5033520;28;20377;-72
2024/04/02 01:44:40;;;;;;;1.25;0.70;;;;;;;;;;5033792;28;20033;-72
2024/04/02 01:47:05;;;;;;;0.63;0.63;;;;;;;;;;5015837;28;20030;-72
2024/04/02 01:49:31;;;;;;;1.55;0.60;;;;;;;;;;5033813;28;20029;-72
2024/04/02 01:51:56;;;;;;;0.60;0.60;;;;;;;;;;5019483;28;20358;-72
2024/04/02 01:54:21;;;;;;;0.52;0.52;;;;;;;;;;5037124;28;20033;-72
2024/04/02 01:56:47;;;;;;;0.90;0.80;;;;;;;;;;5052927;28;20374;-71
2024/04/02 01:59:12;;;;;;;0.82;0.40;;;;;;;;;;5036942;28;20151;-71
2024/04/02 02:01:37;;;;;;;0.60;0.60;;;;;;;;;;5036352;28;20029;-71
2024/04/02 02:04:03;;;;;;;0.68;0.50;;;;;;;;;;5036612;28;20055;-71
2024/04/02 02:06:28;;;;;;;0.52;0.52;;;;;;;;;;5036669;28;20040;-72
2024/04/02 02:08:55;;;;;;;0.45;0.40;;;;;;;;;;5019518;28;20040;-71
2024/04/02 02:11:21;;;;;;;1.13;0.43;;;;;;;;;;5018230;28;20029;-71
2024/04/02 02:13:46;;;;;;;0.90;0.43;;;;;;;;;;5019598;28;20030;-71
2024/04/02 02:16:12;;;;;;;1.70;0.40;;;;;;;;;;5035992;28;20041;-71
2024/04/02 02:18:37;;;;;;;0.68;0.43;;;;;;;;;;5037110;28;20021;-71
2024/04/02 02:21:02;;;;;;;0.40;0.40;;;;;;;;;;5037571;28;20025;-72
2024/04/02 02:23:28;;;;;;;0.50;0.45;;;;;;;;;;5037284;28;20036;-72
2024/04/02 02:25:53;;;;;;;0.30;0.30;;;;;;;;;;5037185;28;20041;-72
2024/04/02 02:28:19;;;;;;;1.48;0.40;;;;;;;;;;5037017;28;20025;-73
2024/04/02 02:30:45;;;;;;;0.57;0.52;;;;;;;;;;5019737;28;20075;-72
2024/04/02 02:33:11;;;;;;;0.40;0.40;;;;;;;;;;5019112;28;20079;-71
